Terminal Aerodrome Forecast
Issued by NWS Binghamton, NY

Home | Current Version | Previous Version | Text Only | Print | Product List | Glossary On
Versions: 1 2 3 4 5 6 7 8 9 10 11 12 13 14 15 16 17 18
243
FTUS41 KBGM 181730
TAFAVP
TAF
KAVP 181730Z 1818/1918 20007KT P6SM -RA OVC060
     FM182000 20007KT 5SM -RA BR OVC025
     FM182300 19006KT 3SM -RA BR OVC015
     FM190600 19011KT 2SM -RA BR OVC008
     FM191100 24012G22KT P6SM OVC010
     FM191500 28017G31KT P6SM OVC025=

USA.gov is the U.S. government's official web portal to all federal, state and local government web resources and services.